sensor_id;sensor_type;location;lat;lon;timestamp;P1;durP1;ratioP1;P2;durP2;ratioP2
27796;SDS011;15177;50.844;4.412;2022-10-16T00:01:06;0.60;;;0.60;;
27796;SDS011;15177;50.844;4.412;2022-10-16T00:03:34;1.40;;;0.82;;
27796;SDS011;15177;50.844;4.412;2022-10-16T00:06:00;0.55;;;0.50;;
27796;SDS011;15177;50.844;4.412;2022-10-16T00:08:26;1.85;;;0.65;;
27796;SDS011;15177;50.844;4.412;2022-10-16T00:10:57;1.60;;;0.90;;
27796;SDS011;15177;50.844;4.412;2022-10-16T00:13:24;1.00;;;0.73;;
27796;SDS011;15177;50.844;4.412;2022-10-16T00:15:49;1.55;;;0.90;;
27796;SDS011;15177;50.844;4.412;2022-10-16T00:18:15;1.50;;;0.90;;
27796;SDS011;15177;50.844;4.412;2022-10-16T00:20:41;1.52;;;0.73;;
27796;SDS011;15177;50.844;4.412;2022-10-16T00:23:06;1.05;;;0.68;;
27796;SDS011;15177;50.844;4.412;2022-10-16T00:25:33;3.15;;;0.80;;
27796;SDS011;15177;50.844;4.412;2022-10-16T00:27:59;1.13;;;0.73;;
27796;SDS011;15177;50.844;4.412;2022-10-16T00:30:25;3.80;;;2.47;;
27796;SDS011;15177;50.844;4.412;2022-10-16T00:32:52;1.58;;;0.73;;
27796;SDS011;15177;50.844;4.412;2022-10-16T00:35:18;1.52;;;1.00;;
27796;SDS011;15177;50.844;4.412;2022-10-16T00:37:44;2.83;;;1.05;;
27796;SDS011;15177;50.844;4.412;2022-10-16T00:40:10;0.95;;;0.70;;
27796;SDS011;15177;50.844;4.412;2022-10-16T00:42:35;1.38;;;1.00;;
27796;SDS011;15177;50.844;4.412;2022-10-16T00:45:02;1.67;;;0.90;;
27796;SDS011;15177;50.844;4.412;2022-10-16T00:47:34;1.63;;;0.80;;
27796;SDS011;15177;50.844;4.412;2022-10-16T00:50:18;4.07;;;0.80;;
27796;SDS011;15177;50.844;4.412;2022-10-16T00:52:48;1.77;;;0.98;;
27796;SDS011;15177;50.844;4.412;2022-10-16T00:55:16;1.33;;;0.82;;
27796;SDS011;15177;50.844;4.412;2022-10-16T00:57:41;1.05;;;0.60;;
27796;SDS011;15177;50.844;4.412;2022-10-16T01:00:12;4.22;;;1.33;;
27796;SDS011;15177;50.844;4.412;2022-10-16T01:02:40;1.73;;;0.90;;
27796;SDS011;15177;50.844;4.412;2022-10-16T01:05:06;15.60;;;1.70;;
27796;SDS011;15177;50.844;4.412;2022-10-16T01:07:41;3.20;;;1.00;;
27796;SDS011;15177;50.844;4.412;2022-10-16T01:10:28;1.17;;;0.80;;
27796;SDS011;15177;50.844;4.412;2022-10-16T01:13:06;1.13;;;1.02;;
27796;SDS011;15177;50.844;4.412;2022-10-16T01:20:58;6.07;;;0.90;;
27796;SDS011;15177;50.844;4.412;2022-10-16T01:23:33;3.45;;;1.25;;
27796;SDS011;15177;50.844;4.412;2022-10-16T01:28:55;1.88;;;1.10;;
27796;SDS011;15177;50.844;4.412;2022-10-16T01:31:29;5.85;;;1.15;;
27796;SDS011;15177;50.844;4.412;2022-10-16T01:34:03;3.65;;;1.13;;
27796;SDS011;15177;50.844;4.412;2022-10-16T01:36:55;2.40;;;1.02;;
27796;SDS011;15177;50.844;4.412;2022-10-16T01:39:28;1.75;;;1.10;;
27796;SDS011;15177;50.844;4.412;2022-10-16T01:42:11;1.98;;;1.05;;
27796;SDS011;15177;50.844;4.412;2022-10-16T01:44:44;1.13;;;0.90;;
27796;SDS011;15177;50.844;4.412;2022-10-16T01:47:12;2.55;;;1.10;;
27796;SDS011;15177;50.844;4.412;2022-10-16T01:49:39;9.48;;;2.17;;
27796;SDS011;15177;50.844;4.412;2022-10-16T01:52:11;1.13;;;0.85;;
27796;SDS011;15177;50.844;4.412;2022-10-16T01:54:41;4.32;;;0.90;;
27796;SDS011;15177;50.844;4.412;2022-10-16T01:57:10;2.30;;;1.33;;
27796;SDS011;15177;50.844;4.412;2022-10-16T01:59:41;3.13;;;1.20;;
27796;SDS011;15177;50.844;4.412;2022-10-16T02:02:09;1.90;;;1.15;;
27796;SDS011;15177;50.844;4.412;2022-10-16T02:04:39;2.50;;;1.20;;
27796;SDS011;15177;50.844;4.412;2022-10-16T02:07:09;2.00;;;1.00;;
27796;SDS011;15177;50.844;4.412;2022-10-16T02:09:36;3.13;;;1.35;;
27796;SDS011;15177;50.844;4.412;2022-10-16T02:12:07;3.17;;;1.40;;
27796;SDS011;15177;50.844;4.412;2022-10-16T02:14:59;4.25;;;1.25;;
27796;SDS011;15177;50.844;4.412;2022-10-16T02:17:26;3.80;;;1.15;;
27796;SDS011;15177;50.844;4.412;2022-10-16T02:19:53;3.75;;;1.20;;
27796;SDS011;15177;50.844;4.412;2022-10-16T02:22:26;1.50;;;0.98;;
27796;SDS011;15177;50.844;4.412;2022-10-16T02:24:58;2.67;;;1.05;;
27796;SDS011;15177;50.844;4.412;2022-10-16T02:33:09;3.15;;;1.38;;
27796;SDS011;15177;50.844;4.412;2022-10-16T02:35:38;3.55;;;1.30;;
27796;SDS011;15177;50.844;4.412;2022-10-16T02:38:06;2.63;;;1.10;;
27796;SDS011;15177;50.844;4.412;2022-10-16T02:40:34;1.85;;;1.23;;
27796;SDS011;15177;50.844;4.412;2022-10-16T02:43:02;4.90;;;1.13;;
27796;SDS011;15177;50.844;4.412;2022-10-16T02:45:28;4.43;;;1.83;;
27796;SDS011;15177;50.844;4.412;2022-10-16T02:47:54;3.67;;;1.50;;
27796;SDS011;15177;50.844;4.412;2022-10-16T02:50:20;3.72;;;1.05;;
27796;SDS011;15177;50.844;4.412;2022-10-16T02:52:46;2.35;;;1.33;;
27796;SDS011;15177;50.844;4.412;2022-10-16T02:55:12;5.03;;;2.42;;
27796;SDS011;15177;50.844;4.412;2022-10-16T02:57:38;1.90;;;1.33;;
27796;SDS011;15177;50.844;4.412;2022-10-16T03:00:05;3.08;;;1.38;;
27796;SDS011;15177;50.844;4.412;2022-10-16T03:02:35;2.55;;;1.38;;
27796;SDS011;15177;50.844;4.412;2022-10-16T03:05:00;2.28;;;1.42;;
27796;SDS011;15177;50.844;4.412;2022-10-16T03:07:26;3.67;;;1.42;;
27796;SDS011;15177;50.844;4.412;2022-10-16T03:09:52;3.33;;;1.35;;
27796;SDS011;15177;50.844;4.412;2022-10-16T03:12:17;3.97;;;1.80;;
27796;SDS011;15177;50.844;4.412;2022-10-16T03:14:43;3.63;;;1.77;;
27796;SDS011;15177;50.844;4.412;2022-10-16T03:17:09;7.32;;;1.80;;
27796;SDS011;15177;50.844;4.412;2022-10-16T03:19:35;3.13;;;1.35;;
27796;SDS011;15177;50.844;4.412;2022-10-16T03:22:01;3.50;;;1.60;;
27796;SDS011;15177;50.844;4.412;2022-10-16T03:24:26;2.67;;;1.63;;
27796;SDS011;15177;50.844;4.412;2022-10-16T03:26:52;3.70;;;1.73;;
27796;SDS011;15177;50.844;4.412;2022-10-16T03:29:18;7.22;;;1.58;;
27796;SDS011;15177;50.844;4.412;2022-10-16T03:31:44;3.72;;;1.38;;
27796;SDS011;15177;50.844;4.412;2022-10-16T03:34:10;3.58;;;1.58;;
27796;SDS011;15177;50.844;4.412;2022-10-16T03:36:36;3.97;;;1.27;;
27796;SDS011;15177;50.844;4.412;2022-10-16T03:39:01;4.32;;;1.30;;
27796;SDS011;15177;50.844;4.412;2022-10-16T03:41:27;6.07;;;1.55;;
27796;SDS011;15177;50.844;4.412;2022-10-16T03:43:53;3.80;;;1.17;;
27796;SDS011;15177;50.844;4.412;2022-10-16T03:46:19;1.70;;;1.30;;
27796;SDS011;15177;50.844;4.412;2022-10-16T03:48:44;1.98;;;1.20;;
27796;SDS011;15177;50.844;4.412;2022-10-16T03:51:10;2.25;;;1.40;;
27796;SDS011;15177;50.844;4.412;2022-10-16T03:53:35;4.55;;;1.60;;
27796;SDS011;15177;50.844;4.412;2022-10-16T03:56:01;4.00;;;1.58;;
27796;SDS011;15177;50.844;4.412;2022-10-16T03:58:27;2.92;;;1.33;;
27796;SDS011;15177;50.844;4.412;2022-10-16T04:00:52;3.65;;;1.45;;
27796;SDS011;15177;50.844;4.412;2022-10-16T04:03:18;2.70;;;1.25;;
27796;SDS011;15177;50.844;4.412;2022-10-16T04:05:44;3.22;;;1.50;;
27796;SDS011;15177;50.844;4.412;2022-10-16T04:08:10;3.85;;;1.50;;
27796;SDS011;15177;50.844;4.412;2022-10-16T04:10:35;2.13;;;1.40;;
27796;SDS011;15177;50.844;4.412;2022-10-16T04:13:02;2.92;;;1.80;;
27796;SDS011;15177;50.844;4.412;2022-10-16T04:15:27;2.65;;;1.52;;
27796;SDS011;15177;50.844;4.412;2022-10-16T04:17:53;3.47;;;1.83;;
27796;SDS011;15177;50.844;4.412;2022-10-16T04:20:19;5.05;;;2.60;;
27796;SDS011;15177;50.844;4.412;2022-10-16T04:22:45;5.35;;;1.58;;
27796;SDS011;15177;50.844;4.412;2022-10-16T04:25:10;2.63;;;1.50;;
27796;SDS011;15177;50.844;4.412;2022-10-16T04:27:36;3.95;;;1.65;;
27796;SDS011;15177;50.844;4.412;2022-10-16T04:30:03;2.92;;;1.52;;
27796;SDS011;15177;50.844;4.412;2022-10-16T04:32:28;3.95;;;1.52;;
27796;SDS011;15177;50.844;4.412;2022-10-16T04:34:54;3.70;;;1.92;;
27796;SDS011;15177;50.844;4.412;2022-10-16T04:37:23;4.38;;;2.20;;
27796;SDS011;15177;50.844;4.412;2022-10-16T04:39:52;4.60;;;1.45;;
27796;SDS011;15177;50.844;4.412;2022-10-16T04:42:19;2.30;;;1.30;;
27796;SDS011;15177;50.844;4.412;2022-10-16T04:44:45;2.83;;;1.05;;
27796;SDS011;15177;50.844;4.412;2022-10-16T04:47:11;2.33;;;1.63;;
27796;SDS011;15177;50.844;4.412;2022-10-16T04:49:37;4.72;;;1.42;;
27796;SDS011;15177;50.844;4.412;2022-10-16T04:52:03;2.90;;;1.77;;
27796;SDS011;15177;50.844;4.412;2022-10-16T04:54:28;3.42;;;1.35;;
27796;SDS011;15177;50.844;4.412;2022-10-16T04:56:54;2.42;;;1.42;;
27796;SDS011;15177;50.844;4.412;2022-10-16T04:59:20;5.60;;;1.88;;
27796;SDS011;15177;50.844;4.412;2022-10-16T05:01:46;2.80;;;1.55;;
27796;SDS011;15177;50.844;4.412;2022-10-16T05:04:11;2.95;;;1.60;;
27796;SDS011;15177;50.844;4.412;2022-10-16T05:06:37;3.38;;;1.30;;
27796;SDS011;15177;50.844;4.412;2022-10-16T05:09:04;6.50;;;1.70;;
27796;SDS011;15177;50.844;4.412;2022-10-16T05:11:30;4.90;;;1.48;;
27796;SDS011;15177;50.844;4.412;2022-10-16T05:13:56;5.53;;;1.60;;
27796;SDS011;15177;50.844;4.412;2022-10-16T05:16:22;2.88;;;1.80;;
27796;SDS011;15177;50.844;4.412;2022-10-16T05:18:47;5.60;;;1.77;;
27796;SDS011;15177;50.844;4.412;2022-10-16T05:21:13;1.70;;;1.27;;
27796;SDS011;15177;50.844;4.412;2022-10-16T05:23:39;3.15;;;1.33;;
27796;SDS011;15177;50.844;4.412;2022-10-16T05:26:05;4.38;;;1.50;;
27796;SDS011;15177;50.844;4.412;2022-10-16T05:28:30;4.07;;;1.73;;
27796;SDS011;15177;50.844;4.412;2022-10-16T05:30:56;1.83;;;1.30;;
27796;SDS011;15177;50.844;4.412;2022-10-16T05:33:24;1.55;;;1.30;;
27796;SDS011;15177;50.844;4.412;2022-10-16T05:35:51;2.28;;;1.50;;
27796;SDS011;15177;50.844;4.412;2022-10-16T05:38:17;4.82;;;1.80;;
27796;SDS011;15177;50.844;4.412;2022-10-16T05:40:43;4.68;;;1.58;;
27796;SDS011;15177;50.844;4.412;2022-10-16T05:43:15;3.78;;;2.13;;
27796;SDS011;15177;50.844;4.412;2022-10-16T05:45:40;5.22;;;1.52;;
27796;SDS011;15177;50.844;4.412;2022-10-16T05:48:06;2.40;;;1.55;;
27796;SDS011;15177;50.844;4.412;2022-10-16T05:50:33;2.67;;;1.95;;
27796;SDS011;15177;50.844;4.412;2022-10-16T05:52:58;5.65;;;1.83;;
27796;SDS011;15177;50.844;4.412;2022-10-16T05:55:24;3.27;;;1.63;;
27796;SDS011;15177;50.844;4.412;2022-10-16T05:57:49;3.38;;;1.95;;
27796;SDS011;15177;50.844;4.412;2022-10-16T06:00:15;2.58;;;1.42;;
27796;SDS011;15177;50.844;4.412;2022-10-16T06:02:41;3.92;;;1.80;;
27796;SDS011;15177;50.844;4.412;2022-10-16T06:05:08;4.87;;;1.73;;
27796;SDS011;15177;50.844;4.412;2022-10-16T06:07:34;2.90;;;1.90;;
27796;SDS011;15177;50.844;4.412;2022-10-16T06:10:00;6.00;;;1.83;;
27796;SDS011;15177;50.844;4.412;2022-10-16T06:12:28;2.80;;;1.55;;
27796;SDS011;15177;50.844;4.412;2022-10-16T06:14:54;5.05;;;1.90;;
27796;SDS011;15177;50.844;4.412;2022-10-16T06:17:20;7.43;;;1.80;;
27796;SDS011;15177;50.844;4.412;2022-10-16T06:19:45;5.22;;;2.00;;
27796;SDS011;15177;50.844;4.412;2022-10-16T06:22:11;2.33;;;1.80;;
27796;SDS011;15177;50.844;4.412;2022-10-16T06:24:37;3.92;;;1.50;;
27796;SDS011;15177;50.844;4.412;2022-10-16T06:27:03;6.68;;;1.55;;
27796;SDS011;15177;50.844;4.412;2022-10-16T06:29:29;2.80;;;1.92;;
27796;SDS011;15177;50.844;4.412;2022-10-16T06:31:54;4.47;;;1.83;;
27796;SDS011;15177;50.844;4.412;2022-10-16T06:34:20;3.15;;;1.40;;
27796;SDS011;15177;50.844;4.412;2022-10-16T06:36:46;5.15;;;2.53;;
27796;SDS011;15177;50.844;4.412;2022-10-16T06:39:11;2.92;;;1.42;;
27796;SDS011;15177;50.844;4.412;2022-10-16T06:41:37;7.53;;;1.75;;
27796;SDS011;15177;50.844;4.412;2022-10-16T06:44:06;8.70;;;2.70;;
27796;SDS011;15177;50.844;4.412;2022-10-16T06:46:35;2.53;;;1.45;;
27796;SDS011;15177;50.844;4.412;2022-10-16T06:49:00;3.15;;;1.38;;
27796;SDS011;15177;50.844;4.412;2022-10-16T06:51:26;4.22;;;1.60;;
27796;SDS011;15177;50.844;4.412;2022-10-16T06:53:54;3.17;;;1.48;;
27796;SDS011;15177;50.844;4.412;2022-10-16T06:56:22;2.10;;;1.33;;
27796;SDS011;15177;50.844;4.412;2022-10-16T06:58:50;2.53;;;1.55;;
27796;SDS011;15177;50.844;4.412;2022-10-16T07:01:17;5.28;;;1.55;;
27796;SDS011;15177;50.844;4.412;2022-10-16T07:03:44;6.75;;;1.50;;
27796;SDS011;15177;50.844;4.412;2022-10-16T07:06:12;4.10;;;2.05;;
27796;SDS011;15177;50.844;4.412;2022-10-16T07:08:39;2.85;;;1.35;;
27796;SDS011;15177;50.844;4.412;2022-10-16T07:11:07;2.78;;;1.58;;
27796;SDS011;15177;50.844;4.412;2022-10-16T07:13:35;2.13;;;1.00;;
27796;SDS011;15177;50.844;4.412;2022-10-16T07:16:08;4.95;;;1.20;;
27796;SDS011;15177;50.844;4.412;2022-10-16T07:18:42;3.38;;;0.93;;
27796;SDS011;15177;50.844;4.412;2022-10-16T07:21:13;2.58;;;1.20;;
27796;SDS011;15177;50.844;4.412;2022-10-16T07:23:40;5.20;;;1.20;;
27796;SDS011;15177;50.844;4.412;2022-10-16T07:26:06;1.50;;;1.05;;
27796;SDS011;15177;50.844;4.412;2022-10-16T07:28:32;4.00;;;1.10;;
27796;SDS011;15177;50.844;4.412;2022-10-16T07:31:02;2.85;;;0.90;;
27796;SDS011;15177;50.844;4.412;2022-10-16T07:33:29;1.60;;;1.02;;
27796;SDS011;15177;50.844;4.412;2022-10-16T07:35:55;4.82;;;1.00;;
27796;SDS011;15177;50.844;4.412;2022-10-16T07:38:20;3.78;;;0.90;;
27796;SDS011;15177;50.844;4.412;2022-10-16T07:40:47;3.92;;;1.10;;
27796;SDS011;15177;50.844;4.412;2022-10-16T07:43:14;1.77;;;0.98;;
27796;SDS011;15177;50.844;4.412;2022-10-16T07:45:46;5.22;;;1.60;;
27796;SDS011;15177;50.844;4.412;2022-10-16T07:48:16;5.53;;;1.75;;
27796;SDS011;15177;50.844;4.412;2022-10-16T07:50:43;5.05;;;1.27;;
27796;SDS011;15177;50.844;4.412;2022-10-16T07:53:09;3.25;;;1.40;;
27796;SDS011;15177;50.844;4.412;2022-10-16T07:55:37;2.42;;;1.15;;
27796;SDS011;15177;50.844;4.412;2022-10-16T07:58:03;2.13;;;1.05;;
27796;SDS011;15177;50.844;4.412;2022-10-16T08:00:29;2.33;;;1.58;;
27796;SDS011;15177;50.844;4.412;2022-10-16T08:02:56;1.85;;;1.10;;
27796;SDS011;15177;50.844;4.412;2022-10-16T08:05:25;3.63;;;1.23;;
27796;SDS011;15177;50.844;4.412;2022-10-16T08:07:52;2.13;;;1.05;;
27796;SDS011;15177;50.844;4.412;2022-10-16T08:10:18;2.25;;;1.30;;
27796;SDS011;15177;50.844;4.412;2022-10-16T08:12:46;3.97;;;1.17;;
27796;SDS011;15177;50.844;4.412;2022-10-16T08:15:12;2.88;;;1.25;;
27796;SDS011;15177;50.844;4.412;2022-10-16T08:17:37;2.70;;;1.30;;
27796;SDS011;15177;50.844;4.412;2022-10-16T08:20:04;2.75;;;1.20;;
27796;SDS011;15177;50.844;4.412;2022-10-16T08:22:29;4.05;;;1.23;;
27796;SDS011;15177;50.844;4.412;2022-10-16T08:24:55;3.58;;;1.15;;
27796;SDS011;15177;50.844;4.412;2022-10-16T08:27:21;4.63;;;0.98;;
27796;SDS011;15177;50.844;4.412;2022-10-16T08:29:48;1.67;;;0.93;;
27796;SDS011;15177;50.844;4.412;2022-10-16T08:32:14;2.67;;;1.00;;
27796;SDS011;15177;50.844;4.412;2022-10-16T08:34:39;3.28;;;1.17;;
27796;SDS011;15177;50.844;4.412;2022-10-16T08:37:05;3.90;;;1.10;;
27796;SDS011;15177;50.844;4.412;2022-10-16T08:39:33;3.05;;;0.95;;
27796;SDS011;15177;50.844;4.412;2022-10-16T08:47:49;4.43;;;1.10;;
27796;SDS011;15177;50.844;4.412;2022-10-16T08:50:29;3.50;;;1.00;;
27796;SDS011;15177;50.844;4.412;2022-10-16T08:52:56;6.43;;;1.17;;
27796;SDS011;15177;50.844;4.412;2022-10-16T08:55:31;2.97;;;1.35;;
27796;SDS011;15177;50.844;4.412;2022-10-16T08:58:09;3.50;;;1.33;;
27796;SDS011;15177;50.844;4.412;2022-10-16T09:00:40;4.03;;;1.15;;
27796;SDS011;15177;50.844;4.412;2022-10-16T09:03:23;2.90;;;1.52;;
27796;SDS011;15177;50.844;4.412;2022-10-16T09:09:05;2.33;;;0.90;;
27796;SDS011;15177;50.844;4.412;2022-10-16T09:14:11;3.08;;;1.00;;
27796;SDS011;15177;50.844;4.412;2022-10-16T09:19:46;3.58;;;1.05;;
27796;SDS011;15177;50.844;4.412;2022-10-16T09:22:25;3.75;;;0.80;;
27796;SDS011;15177;50.844;4.412;2022-10-16T09:24:54;2.90;;;1.17;;
27796;SDS011;15177;50.844;4.412;2022-10-16T09:27:24;2.70;;;1.20;;
27796;SDS011;15177;50.844;4.412;2022-10-16T09:29:51;3.92;;;1.40;;
27796;SDS011;15177;50.844;4.412;2022-10-16T09:32:20;3.67;;;1.00;;
27796;SDS011;15177;50.844;4.412;2022-10-16T09:34:52;3.47;;;1.20;;
27796;SDS011;15177;50.844;4.412;2022-10-16T09:37:22;1.52;;;0.90;;
27796;SDS011;15177;50.844;4.412;2022-10-16T09:39:50;3.53;;;0.90;;
27796;SDS011;15177;50.844;4.412;2022-10-16T09:42:27;1.55;;;0.85;;
27796;SDS011;15177;50.844;4.412;2022-10-16T09:44:57;2.13;;;0.90;;
27796;SDS011;15177;50.844;4.412;2022-10-16T09:47:24;3.95;;;0.95;;
27796;SDS011;15177;50.844;4.412;2022-10-16T09:49:59;3.47;;;1.20;;
27796;SDS011;15177;50.844;4.412;2022-10-16T09:52:30;2.60;;;1.00;;
27796;SDS011;15177;50.844;4.412;2022-10-16T09:55:00;1.95;;;1.00;;
27796;SDS011;15177;50.844;4.412;2022-10-16T09:57:37;3.38;;;0.85;;
27796;SDS011;15177;50.844;4.412;2022-10-16T10:00:15;4.53;;;0.90;;
27796;SDS011;15177;50.844;4.412;2022-10-16T10:02:42;4.70;;;1.20;;
27796;SDS011;15177;50.844;4.412;2022-10-16T10:05:21;2.42;;;0.88;;
27796;SDS011;15177;50.844;4.412;2022-10-16T10:07:57;2.33;;;0.80;;
27796;SDS011;15177;50.844;4.412;2022-10-16T10:10:28;4.63;;;1.30;;
27796;SDS011;15177;50.844;4.412;2022-10-16T10:12:55;2.78;;;0.63;;
27796;SDS011;15177;50.844;4.412;2022-10-16T10:15:21;4.38;;;1.15;;
27796;SDS011;15177;50.844;4.412;2022-10-16T10:17:53;3.45;;;1.15;;
27796;SDS011;15177;50.844;4.412;2022-10-16T10:22:57;6.05;;;1.10;;
27796;SDS011;15177;50.844;4.412;2022-10-16T10:30:56;3.38;;;1.00;;
27796;SDS011;15177;50.844;4.412;2022-10-16T10:46:57;3.22;;;0.95;;
27796;SDS011;15177;50.844;4.412;2022-10-16T10:57:32;3.20;;;0.98;;
27796;SDS011;15177;50.844;4.412;2022-10-16T11:00:21;4.53;;;1.00;;
27796;SDS011;15177;50.844;4.412;2022-10-16T11:03:31;2.45;;;0.82;;
27796;SDS011;15177;50.844;4.412;2022-10-16T11:09:18;3.95;;;0.70;;
27796;SDS011;15177;50.844;4.412;2022-10-16T11:12:10;3.63;;;1.45;;
27796;SDS011;15177;50.844;4.412;2022-10-16T11:17:42;1.77;;;0.90;;
27796;SDS011;15177;50.844;4.412;2022-10-16T11:20:24;4.22;;;0.90;;
27796;SDS011;15177;50.844;4.412;2022-10-16T11:22:54;3.50;;;1.33;;
27796;SDS011;15177;50.844;4.412;2022-10-16T11:25:27;3.13;;;1.15;;
27796;SDS011;15177;50.844;4.412;2022-10-16T11:28:11;1.80;;;0.75;;
27796;SDS011;15177;50.844;4.412;2022-10-16T11:36:39;5.40;;;0.85;;
27796;SDS011;15177;50.844;4.412;2022-10-16T11:39:20;1.80;;;0.70;;
27796;SDS011;15177;50.844;4.412;2022-10-16T11:41:53;3.33;;;1.10;;
27796;SDS011;15177;50.844;4.412;2022-10-16T11:52:41;4.25;;;1.15;;
27796;SDS011;15177;50.844;4.412;2022-10-16T11:55:24;2.78;;;0.60;;
27796;SDS011;15177;50.844;4.412;2022-10-16T11:58:06;2.08;;;0.85;;
27796;SDS011;15177;50.844;4.412;2022-10-16T12:00:45;1.42;;;0.70;;
27796;SDS011;15177;50.844;4.412;2022-10-16T12:05:55;1.05;;;0.70;;
27796;SDS011;15177;50.844;4.412;2022-10-16T12:08:26;1.85;;;0.82;;
27796;SDS011;15177;50.844;4.412;2022-10-16T12:10:53;2.80;;;1.08;;
27796;SDS011;15177;50.844;4.412;2022-10-16T12:18:46;4.05;;;0.60;;
27796;SDS011;15177;50.844;4.412;2022-10-16T12:21:13;2.30;;;0.73;;
27796;SDS011;15177;50.844;4.412;2022-10-16T12:23:51;3.20;;;0.88;;
27796;SDS011;15177;50.844;4.412;2022-10-16T12:26:32;4.88;;;1.15;;
27796;SDS011;15177;50.844;4.412;2022-10-16T12:31:57;4.20;;;1.25;;
27796;SDS011;15177;50.844;4.412;2022-10-16T12:34:27;0.70;;;0.52;;
27796;SDS011;15177;50.844;4.412;2022-10-16T12:36:53;4.65;;;0.98;;
27796;SDS011;15177;50.844;4.412;2022-10-16T12:39:21;1.70;;;0.60;;
27796;SDS011;15177;50.844;4.412;2022-10-16T12:41:59;3.70;;;0.60;;
27796;SDS011;15177;50.844;4.412;2022-10-16T12:44:31;5.03;;;0.50;;
27796;SDS011;15177;50.844;4.412;2022-10-16T12:46:58;0.43;;;0.43;;
27796;SDS011;15177;50.844;4.412;2022-10-16T12:49:32;4.20;;;0.80;;
27796;SDS011;15177;50.844;4.412;2022-10-16T12:52:03;1.75;;;0.65;;
27796;SDS011;15177;50.844;4.412;2022-10-16T12:54:29;3.05;;;0.85;;
27796;SDS011;15177;50.844;4.412;2022-10-16T12:59:50;4.75;;;0.90;;
27796;SDS011;15177;50.844;4.412;2022-10-16T13:07:52;1.77;;;0.77;;
27796;SDS011;15177;50.844;4.412;2022-10-16T13:13:22;4.97;;;1.35;;
27796;SDS011;15177;50.844;4.412;2022-10-16T13:27:39;3.80;;;0.93;;
27796;SDS011;15177;50.844;4.412;2022-10-16T13:30:11;2.85;;;1.10;;
27796;SDS011;15177;50.844;4.412;2022-10-16T13:32:50;4.70;;;1.30;;
27796;SDS011;15177;50.844;4.412;2022-10-16T13:35:22;4.85;;;1.15;;
27796;SDS011;15177;50.844;4.412;2022-10-16T13:37:50;2.75;;;1.10;;
27796;SDS011;15177;50.844;4.412;2022-10-16T13:40:20;1.80;;;0.80;;
27796;SDS011;15177;50.844;4.412;2022-10-16T13:42:47;3.47;;;0.90;;
27796;SDS011;15177;50.844;4.412;2022-10-16T13:45:18;5.15;;;1.05;;
27796;SDS011;15177;50.844;4.412;2022-10-16T13:48:06;3.20;;;0.80;;
27796;SDS011;15177;50.844;4.412;2022-10-16T13:50:34;4.90;;;1.17;;
27796;SDS011;15177;50.844;4.412;2022-10-16T13:53:04;2.30;;;0.90;;
27796;SDS011;15177;50.844;4.412;2022-10-16T13:55:31;3.88;;;1.25;;
27796;SDS011;15177;50.844;4.412;2022-10-16T13:58:12;3.25;;;1.08;;
27796;SDS011;15177;50.844;4.412;2022-10-16T14:00:39;2.38;;;0.88;;
27796;SDS011;15177;50.844;4.412;2022-10-16T14:03:17;3.05;;;0.75;;
27796;SDS011;15177;50.844;4.412;2022-10-16T14:05:50;2.97;;;0.90;;
27796;SDS011;15177;50.844;4.412;2022-10-16T14:08:18;4.28;;;0.90;;
27796;SDS011;15177;50.844;4.412;2022-10-16T14:10:47;1.88;;;0.80;;
27796;SDS011;15177;50.844;4.412;2022-10-16T14:13:19;3.78;;;0.85;;
27796;SDS011;15177;50.844;4.412;2022-10-16T14:15:49;1.33;;;0.75;;
27796;SDS011;15177;50.844;4.412;2022-10-16T14:18:21;6.43;;;1.05;;
27796;SDS011;15177;50.844;4.412;2022-10-16T14:20:49;3.47;;;0.90;;
27796;SDS011;15177;50.844;4.412;2022-10-16T14:23:50;3.75;;;0.60;;
27796;SDS011;15177;50.844;4.412;2022-10-16T14:28:34;2.90;;;0.82;;
27796;SDS011;15177;50.844;4.412;2022-10-16T14:31:01;2.80;;;1.00;;
27796;SDS011;15177;50.844;4.412;2022-10-16T14:33:44;2.10;;;0.93;;
27796;SDS011;15177;50.844;4.412;2022-10-16T14:38:47;3.03;;;0.88;;
27796;SDS011;15177;50.844;4.412;2022-10-16T14:41:16;4.50;;;0.93;;
27796;SDS011;15177;50.844;4.412;2022-10-16T14:43:49;3.63;;;0.98;;
27796;SDS011;15177;50.844;4.412;2022-10-16T14:46:21;5.15;;;1.23;;
27796;SDS011;15177;50.844;4.412;2022-10-16T14:48:55;3.20;;;1.30;;
27796;SDS011;15177;50.844;4.412;2022-10-16T14:51:38;5.85;;;1.10;;
27796;SDS011;15177;50.844;4.412;2022-10-16T14:54:09;7.65;;;1.20;;
27796;SDS011;15177;50.844;4.412;2022-10-16T14:56:44;2.75;;;0.90;;
27796;SDS011;15177;50.844;4.412;2022-10-16T14:59:27;2.17;;;1.23;;
27796;SDS011;15177;50.844;4.412;2022-10-16T15:01:57;3.72;;;1.23;;
27796;SDS011;15177;50.844;4.412;2022-10-16T15:04:23;5.53;;;1.50;;
27796;SDS011;15177;50.844;4.412;2022-10-16T15:06:49;5.40;;;1.15;;
27796;SDS011;15177;50.844;4.412;2022-10-16T15:09:14;3.53;;;1.33;;
27796;SDS011;15177;50.844;4.412;2022-10-16T15:11:40;3.95;;;1.38;;
27796;SDS011;15177;50.844;4.412;2022-10-16T15:14:08;5.60;;;1.45;;
27796;SDS011;15177;50.844;4.412;2022-10-16T15:16:37;3.67;;;1.83;;
27796;SDS011;15177;50.844;4.412;2022-10-16T15:19:03;4.90;;;1.67;;
27796;SDS011;15177;50.844;4.412;2022-10-16T15:21:29;4.30;;;1.48;;
27796;SDS011;15177;50.844;4.412;2022-10-16T15:23:57;7.80;;;2.30;;
27796;SDS011;15177;50.844;4.412;2022-10-16T15:26:24;3.85;;;1.27;;
27796;SDS011;15177;50.844;4.412;2022-10-16T15:28:54;2.67;;;1.20;;
27796;SDS011;15177;50.844;4.412;2022-10-16T15:31:19;4.03;;;1.35;;
27796;SDS011;15177;50.844;4.412;2022-10-16T15:33:48;6.30;;;1.67;;
27796;SDS011;15177;50.844;4.412;2022-10-16T15:36:24;6.72;;;2.00;;
27796;SDS011;15177;50.844;4.412;2022-10-16T15:38:53;5.35;;;1.92;;
27796;SDS011;15177;50.844;4.412;2022-10-16T15:41:19;5.22;;;2.08;;
27796;SDS011;15177;50.844;4.412;2022-10-16T15:43:47;4.82;;;1.63;;
27796;SDS011;15177;50.844;4.412;2022-10-16T15:46:14;2.53;;;1.00;;
27796;SDS011;15177;50.844;4.412;2022-10-16T15:48:42;3.38;;;1.70;;
27796;SDS011;15177;50.844;4.412;2022-10-16T15:51:08;3.00;;;1.27;;
27796;SDS011;15177;50.844;4.412;2022-10-16T15:53:34;5.05;;;1.23;;
27796;SDS011;15177;50.844;4.412;2022-10-16T15:56:01;3.65;;;1.52;;
27796;SDS011;15177;50.844;4.412;2022-10-16T15:58:28;5.97;;;2.10;;
27796;SDS011;15177;50.844;4.412;2022-10-16T16:00:55;3.50;;;1.33;;
27796;SDS011;15177;50.844;4.412;2022-10-16T16:03:21;2.97;;;1.50;;
27796;SDS011;15177;50.844;4.412;2022-10-16T16:05:48;4.03;;;1.35;;
27796;SDS011;15177;50.844;4.412;2022-10-16T16:08:13;4.68;;;1.88;;
27796;SDS011;15177;50.844;4.412;2022-10-16T16:10:41;3.47;;;1.27;;
27796;SDS011;15177;50.844;4.412;2022-10-16T16:13:07;5.65;;;1.52;;
27796;SDS011;15177;50.844;4.412;2022-10-16T16:15:32;4.30;;;2.00;;
27796;SDS011;15177;50.844;4.412;2022-10-16T16:17:58;4.72;;;1.90;;
27796;SDS011;15177;50.844;4.412;2022-10-16T16:20:25;6.22;;;2.10;;
27796;SDS011;15177;50.844;4.412;2022-10-16T16:22:50;6.63;;;1.98;;
27796;SDS011;15177;50.844;4.412;2022-10-16T16:25:16;6.57;;;2.15;;
27796;SDS011;15177;50.844;4.412;2022-10-16T16:27:42;4.05;;;1.67;;
27796;SDS011;15177;50.844;4.412;2022-10-16T16:30:10;4.00;;;2.17;;
27796;SDS011;15177;50.844;4.412;2022-10-16T16:32:36;3.67;;;1.90;;
27796;SDS011;15177;50.844;4.412;2022-10-16T16:35:02;4.75;;;1.98;;
27796;SDS011;15177;50.844;4.412;2022-10-16T16:37:28;5.20;;;2.03;;
27796;SDS011;15177;50.844;4.412;2022-10-16T16:39:54;8.30;;;2.97;;
27796;SDS011;15177;50.844;4.412;2022-10-16T16:42:23;5.97;;;2.20;;
27796;SDS011;15177;50.844;4.412;2022-10-16T16:44:49;4.85;;;2.70;;
27796;SDS011;15177;50.844;4.412;2022-10-16T16:47:15;6.38;;;3.10;;
27796;SDS011;15177;50.844;4.412;2022-10-16T16:49:41;6.03;;;3.47;;
27796;SDS011;15177;50.844;4.412;2022-10-16T16:52:06;6.68;;;3.65;;
27796;SDS011;15177;50.844;4.412;2022-10-16T16:54:32;4.75;;;2.40;;
27796;SDS011;15177;50.844;4.412;2022-10-16T16:56:58;6.43;;;2.50;;